Brook Park, OH

6:52 PM EST on December 04, 2016 (GMT -0500)
Brook Park | | Change Station

Elev 832 ft 41.39 °N, 81.79 °W | Updated 4 seconds ago

Overcast
Overcast
39.5 °F
Feels Like 37 °F
N
3.6
Wind Variable Wind from SE
Gusts 4.6 mph

Today
High -- | Low -- °F
--% Chance of Precip.
Yesterday
High -- | Low -- °F
Precip. -- in
Pressure 30.01 in
Visibility 10.0 miles
Clouds Overcast 10000 ft
Windchill 37 °F
Dew Point 32 °F
Humidity 73%
Rainfall 0.00 in
Snow Depth Not available.
7:37 AM 4:57 PM
Waxing Crescent, 26% visible
METAR KCLE 042251Z 12010KT 10SM OVC100 05/M03 A2999 RMK AO2 SLP161 T00501028
Pressure 30.01 in
Visibility 10.0 miles
Clouds Overcast 10000 ft
Windchill 37 °F
Dew Point 32 °F
Humidity 73%
Rainfall 0.00 in
Snow Depth Not available.
7:37 AM 4:57 PM
Waxing Crescent, 26% visible
METAR KCLE 042251Z 12010KT 10SM OVC100 05/M03 A2999 RMK AO2 SLP161 T00501028

10-Day Weather Forecast

Almanac

Astronomy

Dec. 04, 2016 Rise Set
Actual Time
Civil Twilight
Nautical Twilight
Astronomical Twilight
Moon
Length of Visible Light
Length of Day
Tomorrow will be .
, % of the Moon is Illuminated

Today's Extremes

State Highs State Lows

Community

WunderPhotos

Upload Photos

1,955,703 photos uploaded!

WunderBlog® & News

Nearby

Air Quality

  Air Quality AQ Index Pollutant
Not available.

Snow Depth

Station Depth Elevation

Earthquake Activity

City Distance Mag. Time & Date
Minimum magnitude displayed is 2.5.

Coastal Water Temperatures

Place Temperature

Stations

Nearby Weather Stations

Station Location Temp. Windchill Dew Point Humidity Wind Precip. Elev Updated Type
                   

Watches & Warnings

There are currently no watches in effect.